Map

Track Data

SID SEASON NUMBER BASIN SUBBASIN NAME ISO_TIME NATURE LAT LON WMO_WIND WMO_PRES WMO_AGENCY TRACK_TYPE DIST2LAND LANDFALL IFLAG USA_AGENCY USA_ATCF_ID USA_LAT USA_LON USA_RECORD USA_STATUS USA_WIND USA_PRES USA_SSHS USA_R34_NE USA_R34_SE USA_R34_SW USA_R34_NW USA_R50_NE USA_R50_SE USA_R50_SW USA_R50_NW USA_R64_NE USA_R64_SE USA_R64_SW USA_R64_NW USA_POCI USA_ROCI USA_RMW USA_EYE TOKYO_LAT TOKYO_LON TOKYO_GRADE TOKYO_WIND TOKYO_PRES TOKYO_R50_DIR TOKYO_R50_LONG TOKYO_R50_SHORT TOKYO_R30_DIR TOKYO_R30_LONG TOKYO_R30_SHORT TOKYO_LAND CMA_LAT CMA_LON CMA_CAT CMA_WIND CMA_PRES HKO_LAT HKO_LON HKO_CAT HKO_WIND HKO_PRES NEWDELHI_LAT NEWDELHI_LON NEWDELHI_GRADE NEWDELHI_WIND NEWDELHI_PRES NEWDELHI_CI NEWDELHI_DP NEWDELHI_POCI REUNION_LAT REUNION_LON REUNION_TYPE REUNION_WIND REUNION_PRES REUNION_TNUM REUNION_CI REUNION_RMW REUNION_R34_NE REUNION_R34_SE REUNION_R34_SW REUNION_R34_NW REUNION_R50_NE REUNION_R50_SE REUNION_R50_SW REUNION_R50_NW REUNION_R64_NE REUNION_R64_SE REUNION_R64_SW REUNION_R64_NW BOM_LAT BOM_LON BOM_TYPE BOM_WIND BOM_PRES BOM_TNUM BOM_CI BOM_RMW BOM_R34_NE BOM_R34_SE BOM_R34_SW BOM_R34_NW BOM_R50_NE BOM_R50_SE BOM_R50_SW BOM_R50_NW BOM_R64_NE BOM_R64_SE BOM_R64_SW BOM_R64_NW BOM_ROCI BOM_POCI BOM_EYE BOM_POS_METHOD BOM_PRES_METHOD NADI_LAT NADI_LON NADI_CAT NADI_WIND NADI_PRES WELLINGTON_LAT WELLINGTON_LON WELLINGTON_WIND WELLINGTON_PRES DS824_LAT DS824_LON DS824_STAGE DS824_WIND DS824_PRES TD9636_LAT TD9636_LON TD9636_STAGE TD9636_WIND TD9636_PRES TD9635_LAT TD9635_LON TD9635_WIND TD9635_PRES TD9635_ROCI NEUMANN_LAT NEUMANN_LON NEUMANN_CLASS NEUMANN_WIND NEUMANN_PRES MLC_LAT MLC_LON MLC_CLASS MLC_WIND MLC_PRES USA_GUST BOM_GUST BOM_GUST_PER REUNION_GUST REUNION_GUST_PER USA_SEAHGT USA_SEARAD_NE USA_SEARAD_SE USA_SEARAD_SW USA_SEARAD_NW STORM_SPEED STORM_DIR
1932264N17126 1932 54 WP MM NOT_NAMED 1932-09-20 10:00:00 NR 17.2000 126.000 main 372 351 __________O___ -1 17.2000 126.000 7 5 268
1932264N17126 1932 54 WP MM NOT_NAMED 1932-09-20 12:00:00 NR 17.1954 125.842 main 351 330 __________P___ -1 17.1954 125.842 7 5 269
1932264N17126 1932 54 WP MM NOT_NAMED 1932-09-20 15:00:00 NR 17.1902 125.582 main 330 298 __________P___ -1 17.1902 125.582 7 5 269
1932264N17126 1932 54 WP MM NOT_NAMED 1932-09-20 18:00:00 NR 17.1896 125.267 main 298 256 __________P___ -1 17.1896 125.267 7 7 270
1932264N17126 1932 54 WP MM NOT_NAMED 1932-09-20 21:00:00 NR 17.1959 124.861 main 256 234 __________P___ -1 17.1959 124.861 7 8 271
1932264N17126 1932 54 WP MM NOT_NAMED 1932-09-20 22:00:00 NR 17.2000 124.700 main 234 192 __________O___ -1 17.2000 124.700 3 10 272
1932264N17126 1932 54 WP MM NOT_NAMED 1932-09-21 00:00:00 NR 17.2113 124.335 main 192 129 __________P___ -1 17.2113 124.335 3 11 272
1932264N17126 1932 54 WP MM NOT_NAMED 1932-09-21 03:00:00 NR 17.2342 123.700 main 129 62 __________P___ -1 17.2342 123.700 3 13 272
1932264N17126 1932 54 WP MM NOT_NAMED 1932-09-21 06:00:00 NR 17.2616 122.992 main 62 0 __________P___ -1 17.2616 122.992 3 14 272
1932264N17126 1932 54 WP MM NOT_NAMED 1932-09-21 09:00:00 NR 17.2904 122.249 main 0 0 __________P___ -1 17.2904 122.249 3 14 272
1932264N17126 1932 54 WP MM NOT_NAMED 1932-09-21 10:00:00 NR 17.3000 122.000 main 0 0 __________O___ -1 17.3000 122.000 4 14 270
1932264N17126 1932 54 WP MM NOT_NAMED 1932-09-21 12:00:00 NR 17.2851 121.514 main 0 0 __________P___ -1 17.2851 121.514 4 14 268
1932264N17126 1932 54 WP MM NOT_NAMED 1932-09-21 15:00:00 NR 17.2623 120.773 main 0 0 __________P___ -1 17.2623 120.773 4 14 269
1932264N17126 1932 54 WP MM NOT_NAMED 1932-09-21 18:00:00 NR 17.2719 120.036 main 43 43 __________P___ -1 17.2719 120.036 4 14 274
1932264N17126 1932 54 WP MM NOT_NAMED 1932-09-21 21:00:00 NR 17.3514 119.327 main 108 108 __________P___ -1 17.3514 119.327 4 14 278
1932264N17126 1932 54 WP MM NOT_NAMED 1932-09-21 22:00:00 NR 17.4000 119.100 main 129 129 __________O___ -1 17.4000 119.100 4 13 288
1932264N17126 1932 54 WP MM NOT_NAMED 1932-09-22 00:00:00 NR 17.5550 118.680 main 169 180 __________P___ -1 17.5550 118.680 4 13 296
1932264N17126 1932 54 WP MM NOT_NAMED 1932-09-22 03:00:00 NR 17.8641 118.081 main 235 245 __________P___ -1 17.8641 118.081 4 13 301
1932264N17126 1932 54 WP MM NOT_NAMED 1932-09-22 06:00:00 NR 18.2236 117.497 main 303 303 __________P___ -1 18.2236 117.497 4 13 303
1932264N17126 1932 54 WP MM NOT_NAMED 1932-09-22 09:00:00 NR 18.5864 116.904 main 376 376 __________P___ -1 18.5864 116.904 4 13 302
1932264N17126 1932 54 WP MM NOT_NAMED 1932-09-22 10:00:00 NR 18.7000 116.700 main 399 399 __________O___ -1 18.7000 116.700 4 14 297
1932264N17126 1932 54 WP MM NOT_NAMED 1932-09-22 12:00:00 NR 18.9102 116.247 main 424 368 __________P___ -1 18.9102 116.247 4 14 295
1932264N17126 1932 54 WP MM NOT_NAMED 1932-09-22 15:00:00 NR 19.2073 115.547 main 368 319 __________P___ -1 19.2073 115.547 4 14 293
1932264N17126 1932 54 WP MM NOT_NAMED 1932-09-22 18:00:00 NR 19.4625 114.854 main 319 275 __________P___ -1 19.4625 114.854 4 13 289
1932264N17126 1932 54 WP MM NOT_NAMED 1932-09-22 21:00:00 NR 19.6540 114.202 main 275 267 __________P___ -1 19.6540 114.202 4 13 286
1932264N17126 1932 54 WP MM NOT_NAMED 1932-09-22 22:00:00 NR 19.7000 114.000 main 267 242 __________O___ -1 19.7000 114.000 4 11 281
1932264N17126 1932 54 WP MM NOT_NAMED 1932-09-23 00:00:00 NR 19.7534 113.642 main 242 231 __________P___ -1 19.7534 113.642 4 10 275
1932264N17126 1932 54 WP MM NOT_NAMED 1932-09-23 03:00:00 NR 19.7712 113.156 main 231 178 __________P___ -1 19.7712 113.156 4 9 269
1932264N17126 1932 54 WP MM NOT_NAMED 1932-09-23 06:00:00 NR 19.7449 112.704 main 178 136 __________P___ -1 19.7449 112.704 4 9 266
1932264N17126 1932 54 WP MM NOT_NAMED 1932-09-23 09:00:00 NR 19.7085 112.255 main 136 115 __________P___ -1 19.7085 112.255 4 9 265
1932264N17126 1932 54 WP MM NOT_NAMED 1932-09-23 10:00:00 NR 19.7000 112.100 main 115 74 __________O___ -1 19.7000 112.100 4 10 268
1932264N17126 1932 54 WP MM NOT_NAMED 1932-09-23 12:00:00 NR 19.6927 111.745 main 74 23 __________P___ -1 19.6927 111.745 4 10 269
1932264N17126 1932 54 WP MM NOT_NAMED 1932-09-23 15:00:00 NR 19.6877 111.201 main 23 0 __________P___ -1 19.6877 111.201 4 10 271
1932264N17126 1932 54 WP MM NOT_NAMED 1932-09-23 18:00:00 NR 19.7062 110.663 main 0 0 __________P___ -1 19.7062 110.663 4 10 275
1932264N17126 1932 54 WP MM NOT_NAMED 1932-09-23 21:00:00 NR 19.7671 110.157 main 0 0 __________P___ -1 19.7671 110.157 4 9 279
1932264N17126 1932 54 WP MM NOT_NAMED 1932-09-23 22:00:00 NR 19.8000 110.000 main 0 0 __________O___ -1 19.8000 110.000 4 9 287
1932264N17126 1932 54 WP MM NOT_NAMED 1932-09-24 00:00:00 NR 19.8902 109.716 main 0 0 __________P___ -1 19.8902 109.716 4 8 293
1932264N17126 1932 54 WP MM NOT_NAMED 1932-09-24 03:00:00 NR 20.0700 109.327 main 30 30 __________P___ -1 20.0700 109.327 4 8 299
1932264N17126 1932 54 WP MM NOT_NAMED 1932-09-24 06:00:00 NR 20.2866 108.967 main 64 69 __________P___ -1 20.2866 108.967 4 8 304
1932264N17126 1932 54 WP MM NOT_NAMED 1932-09-24 09:00:00 NR 20.5211 108.618 main 107 105 __________P___ -1 20.5211 108.618 4 8 306
1932264N17126 1932 54 WP MM NOT_NAMED 1932-09-24 10:00:00 NR 20.6000 108.500 main 105 78 __________O___ -1 20.6000 108.500 4 8 305
1932264N17126 1932 54 WP MM NOT_NAMED 1932-09-24 12:00:00 NR 20.7555 108.260 main 78 44 __________P___ -1 20.7555 108.260 4 8 304
1932264N17126 1932 54 WP MM NOT_NAMED 1932-09-24 15:00:00 NR 20.9836 107.891 main 44 10 __________P___ -1 20.9836 107.891 4 8 303
1932264N17126 1932 54 WP MM NOT_NAMED 1932-09-24 18:00:00 NR 21.2069 107.513 main 10 0 __________P___ -1 21.2069 107.513 4 8 302
1932264N17126 1932 54 WP MM NOT_NAMED 1932-09-24 21:00:00 NR 21.4270 107.129 main 0 0 __________P___ -1 21.4270 107.129 4 8 302
1932264N17126 1932 54 WP MM NOT_NAMED 1932-09-24 22:00:00 NR 21.5000 107.000 main 0 __________O___ -1 21.5000 107.000 7 8 302

Digital Typhoon Data and Search

About IBTrACS Database

This database is a web-friendly format of International Best Track Archive for Climate Stewardship (IBTrACS), a global best track data archive curated by NOAA dating back to 1842.

Updated: 2021-12-03